createdAt,value
2023-04-28T00:01:10.057Z,55.21
2023-04-28T00:03:11.876Z,55.25
2023-04-28T00:05:13.667Z,55.05
2023-04-28T00:07:15.361Z,55.04
2023-04-28T00:09:16.914Z,55.46
2023-04-28T00:11:18.682Z,55.30
2023-04-28T00:13:20.286Z,55.19
2023-04-28T00:15:23.486Z,55.09
2023-04-28T00:17:25.154Z,55.43
2023-04-28T00:19:26.867Z,55.67
2023-04-28T00:21:28.524Z,55.30
2023-04-28T00:23:30.123Z,56.04
2023-04-28T00:25:31.788Z,55.18
2023-04-28T00:27:33.643Z,55.73
2023-04-28T00:29:35.229Z,55.96
2023-04-28T00:31:38.173Z,55.39
2023-04-28T00:33:40.140Z,55.76
2023-04-28T00:35:41.785Z,56.22
2023-04-28T00:37:43.438Z,56.18
2023-04-28T00:39:45.096Z,55.64
2023-04-28T00:41:46.632Z,56.26
2023-04-28T00:43:48.926Z,56.15
2023-04-28T00:45:50.621Z,56.28
2023-04-28T00:47:54.730Z,55.71
2023-04-28T00:49:56.655Z,55.68
2023-04-28T00:51:59.854Z,56.06
2023-04-28T00:54:01.729Z,56.28
2023-04-28T00:56:03.994Z,56.07
2023-04-28T00:58:06.134Z,56.65
2023-04-28T01:00:08.756Z,56.32
2023-04-28T01:02:11.425Z,55.88
2023-04-28T01:04:15.216Z,56.25
2023-04-28T01:06:18.060Z,56.57
2023-04-28T01:08:23.514Z,56.17
2023-04-28T01:10:25.055Z,57.04
2023-04-28T01:12:26.655Z,56.44
2023-04-28T01:14:28.222Z,56.70
2023-04-28T01:16:30.134Z,56.93
2023-04-28T01:18:31.948Z,56.71
2023-04-28T01:20:34.926Z,56.72
2023-04-28T01:22:36.599Z,56.85
2023-04-28T01:24:39.915Z,57.58
2023-04-28T01:26:41.637Z,57.56
2023-04-28T01:28:43.249Z,57.05
2023-04-28T01:30:44.827Z,57.88
2023-04-28T01:32:46.426Z,57.30
2023-04-28T01:34:48.013Z,57.50
2023-04-28T01:36:49.722Z,57.01
2023-04-28T01:38:51.302Z,58.14
2023-04-28T01:40:55.605Z,57.07
2023-04-28T01:42:57.272Z,58.04
2023-04-28T01:44:59.063Z,58.08
2023-04-28T01:47:00.604Z,57.83
2023-04-28T01:49:02.591Z,57.43
2023-04-28T01:51:04.389Z,58.23
2023-04-28T01:53:06.050Z,58.01
2023-04-28T01:55:08.533Z,57.72
2023-04-28T01:57:11.532Z,57.94
2023-04-28T01:59:13.069Z,57.86
2023-04-28T02:01:14.641Z,58.12
2023-04-28T02:03:16.368Z,57.72
2023-04-28T02:05:17.996Z,58.02
2023-04-28T02:07:19.603Z,58.15
2023-04-28T02:09:21.128Z,58.36
2023-04-28T02:11:22.773Z,59.02
2023-04-28T02:13:25.714Z,59.23
2023-04-28T02:15:27.279Z,58.74
2023-04-28T02:17:30.077Z,58.76
2023-04-28T02:19:31.697Z,58.22
2023-04-28T02:21:33.359Z,58.23
2023-04-28T02:23:34.995Z,59.24
2023-04-28T02:25:36.549Z,59.24
2023-04-28T02:27:38.225Z,58.82
2023-04-28T02:29:41.215Z,58.89
2023-04-28T02:31:42.816Z,58.88
2023-04-28T02:33:44.587Z,58.92
2023-04-28T02:35:46.187Z,58.53
2023-04-28T02:37:47.693Z,58.75
2023-04-28T02:39:49.242Z,59.32
2023-04-28T02:41:50.942Z,59.12
2023-04-28T02:43:52.472Z,59.09
2023-04-28T02:45:55.695Z,58.63
2023-04-28T02:47:57.344Z,58.92
2023-04-28T02:49:58.950Z,58.28
2023-04-28T02:52:00.496Z,58.39
2023-04-28T02:54:02.051Z,58.80
2023-04-28T02:56:03.889Z,59.33
2023-04-28T02:58:05.627Z,58.45
2023-04-28T03:00:08.444Z,58.94
2023-04-28T03:02:11.394Z,58.61
2023-04-28T03:04:13.104Z,59.06
2023-04-28T03:06:14.804Z,58.96
2023-04-28T03:08:16.520Z,59.37
2023-04-28T03:10:18.404Z,59.29
2023-04-28T03:12:19.994Z,59.67
2023-04-28T03:14:21.658Z,59.21
2023-04-28T03:16:23.401Z,59.10
2023-04-28T03:18:26.439Z,59.31
2023-04-28T03:20:28.228Z,59.51
2023-04-28T03:22:29.845Z,59.95
2023-04-28T03:24:31.625Z,59.97
2023-04-28T03:26:33.363Z,59.79
2023-04-28T03:28:34.947Z,60.43
2023-04-28T03:30:36.508Z,60.11
2023-04-28T03:32:38.093Z,59.49
2023-04-28T03:34:41.000Z,59.75
2023-04-28T03:36:42.563Z,59.51
2023-04-28T03:38:44.495Z,59.09
2023-04-28T03:40:46.059Z,59.26
2023-04-28T03:42:47.651Z,59.12
2023-04-28T03:44:49.195Z,58.92
2023-04-28T03:46:50.794Z,58.90
2023-04-28T03:48:52.285Z,58.79
2023-04-28T03:50:55.317Z,58.79
2023-04-28T03:52:56.891Z,58.97
2023-04-28T03:54:58.643Z,59.09
2023-04-28T03:57:00.311Z,59.44
2023-04-28T03:59:01.917Z,59.44
2023-04-28T04:01:03.510Z,59.02
2023-04-28T04:03:05.278Z,59.08
2023-04-28T04:05:07.389Z,59.57
2023-04-28T04:07:10.791Z,58.98
2023-04-28T04:09:15.409Z,59.44
2023-04-28T04:11:16.928Z,58.79
2023-04-28T04:13:18.518Z,59.21
2023-04-28T04:15:20.066Z,58.94
2023-04-28T04:17:21.680Z,59.86
2023-04-28T04:19:23.263Z,59.18
2023-04-28T04:21:24.993Z,60.76
2023-04-28T04:23:28.093Z,60.51
2023-04-28T04:25:30.318Z,60.67
2023-04-28T04:27:31.916Z,60.47
2023-04-28T04:29:33.878Z,60.06
2023-04-28T04:31:35.648Z,60.56
2023-04-28T04:33:37.299Z,60.67
2023-04-28T04:35:38.961Z,61.14
2023-04-28T04:37:40.983Z,60.62
2023-04-28T04:39:43.913Z,60.46
2023-04-28T04:41:45.825Z,60.93
2023-04-28T04:43:47.439Z,60.18
2023-04-28T04:45:49.126Z,60.73
2023-04-28T04:47:50.777Z,60.98
2023-04-28T04:49:52.942Z,60.39
2023-04-28T04:51:54.718Z,60.63
2023-04-28T04:53:56.355Z,60.72
2023-04-28T04:55:59.289Z,60.83
2023-04-28T04:58:01.203Z,61.04
2023-04-28T05:00:03.248Z,60.86
2023-04-28T05:02:05.055Z,60.68
2023-04-28T05:04:06.785Z,61.15
2023-04-28T05:06:08.474Z,61.35
2023-04-28T05:08:10.050Z,61.19
2023-04-28T05:10:11.595Z,61.04
2023-04-28T05:12:14.527Z,60.38
2023-04-28T05:14:16.992Z,60.95
2023-04-28T05:16:19.098Z,60.99
2023-04-28T05:18:20.897Z,62.30
2023-04-28T05:20:23.029Z,61.68
2023-04-28T05:22:24.775Z,62.15
2023-04-28T05:24:26.304Z,61.48
2023-04-28T05:26:28.192Z,61.72
2023-04-28T05:28:31.501Z,61.86
2023-04-28T05:30:33.138Z,62.04
2023-04-28T05:32:34.869Z,62.19
2023-04-28T05:34:36.424Z,61.82
2023-04-28T05:36:38.195Z,62.31
2023-04-28T05:38:39.779Z,61.93
2023-04-28T05:40:41.343Z,62.15
2023-04-28T05:42:42.929Z,61.76
2023-04-28T05:44:45.841Z,62.92
2023-04-28T05:46:47.439Z,61.69
2023-04-28T05:48:48.961Z,61.94
2023-04-28T05:50:50.522Z,61.45
2023-04-28T05:52:53.943Z,60.58
2023-04-28T05:54:55.514Z,60.46
2023-04-28T05:56:57.802Z,59.68
2023-04-28T05:59:00.482Z,58.91
2023-04-28T06:01:03.437Z,59.17
2023-04-28T06:03:05.206Z,58.92
2023-04-28T06:05:07.886Z,59.12
2023-04-28T06:07:10.065Z,59.28
2023-04-28T06:09:11.721Z,58.73
2023-04-28T06:11:13.258Z,58.90
2023-04-28T06:13:15.218Z,57.99
2023-04-28T06:15:16.782Z,57.66
2023-04-28T06:17:19.820Z,57.42
2023-04-28T06:19:21.402Z,57.61
2023-04-28T06:21:23.151Z,58.18
2023-04-28T06:23:25.195Z,57.78
2023-04-28T06:25:26.835Z,57.85
2023-04-28T06:27:28.386Z,57.26
2023-04-28T06:29:29.947Z,56.92
2023-04-28T06:31:31.549Z,57.37
2023-04-28T06:33:34.548Z,57.26
2023-04-28T06:35:36.573Z,56.54
2023-04-28T06:37:38.282Z,56.26
2023-04-28T06:39:39.791Z,56.23
2023-04-28T06:41:41.411Z,56.17
2023-04-28T06:43:43.277Z,55.40
2023-04-28T06:45:45.123Z,55.45
2023-04-28T06:47:46.896Z,55.56
2023-04-28T06:49:49.767Z,55.04
2023-04-28T06:51:51.557Z,55.25
2023-04-28T06:53:55.408Z,55.32
2023-04-28T06:55:57.021Z,50.14
2023-04-28T06:57:58.676Z,53.06
2023-04-28T07:00:00.212Z,53.22
2023-04-28T07:02:01.899Z,53.71
2023-04-28T07:04:03.838Z,53.14
2023-04-28T07:06:07.234Z,50.69
2023-04-28T07:08:08.831Z,51.46
2023-04-28T07:10:10.546Z,48.10
2023-04-28T07:12:12.142Z,48.07
2023-04-28T07:14:13.838Z,48.04
2023-04-28T07:16:15.740Z,46.56
2023-04-28T07:18:17.338Z,45.98
2023-04-28T07:20:19.289Z,45.97
2023-04-28T07:22:22.222Z,45.54
2023-04-28T07:24:23.739Z,44.88
2023-04-28T07:26:25.329Z,43.77
2023-04-28T07:28:27.122Z,45.02
2023-04-28T07:30:28.661Z,43.97
2023-04-28T07:32:30.287Z,44.23
2023-04-28T07:34:32.171Z,43.99
2023-04-28T07:36:34.386Z,44.26
2023-04-28T07:38:37.346Z,44.51
2023-04-28T07:40:39.096Z,43.52
2023-04-28T07:42:40.761Z,43.54
2023-04-28T07:44:42.338Z,42.77
2023-04-28T07:46:43.938Z,42.51
2023-04-28T07:48:45.650Z,41.80
2023-04-28T07:50:47.357Z,42.10
2023-04-28T07:52:49.011Z,41.22
2023-04-28T07:54:52.019Z,41.27
2023-04-28T07:56:54.029Z,39.99
2023-04-28T07:58:55.857Z,39.61
2023-04-28T08:00:57.478Z,39.84
2023-04-28T08:02:59.136Z,40.40
2023-04-28T08:05:01.091Z,40.13
2023-04-28T08:07:03.290Z,41.14
2023-04-28T08:09:04.888Z,40.40
2023-04-28T08:11:07.869Z,38.37
2023-04-28T08:13:09.457Z,38.87
2023-04-28T08:15:11.515Z,39.48
2023-04-28T08:17:13.157Z,38.88
2023-04-28T08:19:14.796Z,38.31
2023-04-28T08:21:16.505Z,38.33
2023-04-28T08:23:18.315Z,37.04
2023-04-28T08:25:19.874Z,36.92
2023-04-28T08:27:22.830Z,36.93
2023-04-28T08:29:24.578Z,36.63
2023-04-28T08:31:26.347Z,35.84
2023-04-28T08:33:28.069Z,36.03
2023-04-28T08:35:30.215Z,36.07
2023-04-28T08:37:31.879Z,35.76
2023-04-28T08:39:33.508Z,35.60
2023-04-28T08:41:38.870Z,36.71
2023-04-28T08:43:42.060Z,35.30
2023-04-28T08:45:44.741Z,35.64
2023-04-28T08:47:49.644Z,36.76
2023-04-28T08:49:53.127Z,35.11
2023-04-28T08:51:57.502Z,34.61
2023-04-28T08:54:18.905Z,34.67
2023-04-28T08:56:23.512Z,33.79
2023-04-28T08:58:26.581Z,33.47
2023-04-28T09:00:29.454Z,33.35
2023-04-28T09:02:31.457Z,33.08
2023-04-28T09:04:33.377Z,33.17
2023-04-28T09:06:36.512Z,32.77
2023-04-28T09:08:38.144Z,32.34
2023-04-28T09:10:39.795Z,33.04
2023-04-28T09:12:41.383Z,33.10
2023-04-28T09:14:42.983Z,32.14
2023-04-28T09:16:46.114Z,32.97
2023-04-28T09:18:56.461Z,35.08
2023-04-28T09:21:03.727Z,34.61
2023-04-28T09:23:16.339Z,35.13
2023-04-28T09:25:18.062Z,32.20
2023-04-28T09:27:27.498Z,33.43
2023-04-28T09:29:29.256Z,31.25
2023-04-28T09:31:30.899Z,31.96
2023-04-28T09:33:33.928Z,30.18
2023-04-28T09:35:43.006Z,33.01
2023-04-28T09:37:45.272Z,30.85
2023-04-28T09:39:48.015Z,29.98
2023-04-28T09:41:49.653Z,30.61
2023-04-28T09:43:51.217Z,30.22
2023-04-28T09:45:53.239Z,30.92
2023-04-28T09:48:10.052Z,34.05
2023-04-28T09:50:15.207Z,30.58
2023-04-28T09:52:17.018Z,30.29
2023-04-28T09:54:21.835Z,30.73
2023-04-28T09:56:27.433Z,30.39
2023-04-28T09:58:30.725Z,29.95
2023-04-28T10:00:34.213Z,30.78
2023-04-28T10:04:44.839Z,28.57
2023-04-28T10:06:48.545Z,29.98
2023-04-28T10:08:51.304Z,29.44
2023-04-28T10:10:53.880Z,29.32
2023-04-28T10:12:56.255Z,27.82
2023-04-28T10:14:58.440Z,28.62
2023-04-28T10:17:01.292Z,28.59
2023-04-28T10:19:03.062Z,28.53
2023-04-28T10:21:06.681Z,28.50
2023-04-28T10:23:36.543Z,32.31
2023-04-28T10:25:38.101Z,28.72
2023-04-28T10:27:42.354Z,28.46
2023-04-28T10:29:44.894Z,27.32
2023-04-28T10:32:17.685Z,31.48
2023-04-28T10:34:22.997Z,28.71
2023-04-28T10:36:48.333Z,30.24
2023-04-28T10:39:11.103Z,31.83
2023-04-28T10:41:33.737Z,31.50
2023-04-28T10:43:39.522Z,28.38
2023-04-28T10:46:01.292Z,30.82
2023-04-28T10:48:03.100Z,26.17
2023-04-28T10:50:08.816Z,27.13
2023-04-28T10:52:43.735Z,31.33
2023-04-28T10:55:29.404Z,30.40
2023-04-28T10:57:30.985Z,26.92
2023-04-28T10:59:32.696Z,26.56
2023-04-28T11:01:34.538Z,26.48
2023-04-28T11:03:49.347Z,30.07
2023-04-28T11:06:18.472Z,31.44
2023-04-28T11:08:34.994Z,29.06
2023-04-28T11:11:09.925Z,30.06
2023-04-28T11:13:28.347Z,30.08
2023-04-28T11:15:30.018Z,26.01
2023-04-28T11:17:41.000Z,29.24
2023-04-28T11:19:44.228Z,25.58
2023-04-28T11:21:46.890Z,25.48
2023-04-28T11:23:48.963Z,26.06
2023-04-28T11:25:56.713Z,27.33
2023-04-28T11:28:04.273Z,25.86
2023-04-28T11:30:21.067Z,28.35
2023-04-28T11:32:27.754Z,26.99
2023-04-28T11:34:29.421Z,24.78
2023-04-28T11:36:33.382Z,25.35
2023-04-28T11:38:43.439Z,27.18
2023-04-28T11:40:56.907Z,27.63
2023-04-28T11:43:00.004Z,25.08
2023-04-28T11:45:02.300Z,25.33
2023-04-28T11:47:06.832Z,25.40
2023-04-28T11:49:08.622Z,24.97
2023-04-28T11:51:10.303Z,23.77
2023-04-28T11:53:11.937Z,23.50
2023-04-28T11:55:17.074Z,24.89
2023-04-28T11:57:20.474Z,23.74
2023-04-28T12:01:26.693Z,24.97
2023-04-28T12:03:29.866Z,23.74
2023-04-28T12:05:31.540Z,23.46
2023-04-28T12:07:41.675Z,26.59
2023-04-28T12:09:45.272Z,24.53
2023-04-28T12:11:57.269Z,27.24
2023-04-28T12:14:06.500Z,27.13
2023-04-28T12:16:09.134Z,23.57
2023-04-28T12:18:11.137Z,24.13
2023-04-28T12:20:35.509Z,26.53
2023-04-28T12:22:47.745Z,26.66
2023-04-28T12:25:03.777Z,26.45
2023-04-28T12:27:16.166Z,23.47
2023-04-28T12:29:35.928Z,26.42
2023-04-28T12:31:50.210Z,26.91
2023-04-28T12:33:51.816Z,24.81
2023-04-28T12:35:55.926Z,23.89
2023-04-28T12:37:57.918Z,23.42
2023-04-28T12:39:59.556Z,23.62
2023-04-28T12:42:01.507Z,23.00
2023-04-28T12:44:03.043Z,23.16
2023-04-28T12:46:05.550Z,22.97
2023-04-28T12:48:07.875Z,23.04
2023-04-28T12:50:09.838Z,23.17
2023-04-28T12:52:12.823Z,23.09
2023-04-28T12:54:14.412Z,22.82
2023-04-28T12:56:16.049Z,23.63
2023-04-28T12:58:17.641Z,23.80
2023-04-28T13:00:19.393Z,23.98
2023-04-28T13:02:21.291Z,25.88
2023-04-28T13:04:23.437Z,26.46
2023-04-28T13:06:26.692Z,26.37
2023-04-28T13:08:31.865Z,26.60
2023-04-28T13:10:33.379Z,25.65
2023-04-28T13:12:35.043Z,25.79
2023-04-28T13:14:36.740Z,26.41
2023-04-28T13:16:38.531Z,26.46
2023-04-28T13:18:40.275Z,26.43
2023-04-28T13:20:41.799Z,26.26
2023-04-28T13:22:43.883Z,26.33
2023-04-28T13:24:46.951Z,26.63
2023-04-28T13:26:48.785Z,26.17
2023-04-28T13:28:51.146Z,26.33
2023-04-28T13:30:52.911Z,26.25
2023-04-28T13:32:56.162Z,26.38
2023-04-28T13:34:58.941Z,26.92
2023-04-28T13:37:00.614Z,27.56
2023-04-28T13:39:02.698Z,26.64
2023-04-28T13:41:05.807Z,27.25
2023-04-28T13:43:07.325Z,27.97
2023-04-28T13:45:09.474Z,27.30
2023-04-28T13:47:11.155Z,27.28
2023-04-28T13:49:13.312Z,27.72
2023-04-28T13:51:15.182Z,28.54
2023-04-28T13:53:16.795Z,28.33
2023-04-28T13:55:18.372Z,27.79
2023-04-28T13:57:21.257Z,28.03
2023-04-28T13:59:22.985Z,29.11
2023-04-28T14:01:24.630Z,29.11
2023-04-28T14:03:27.075Z,29.06
2023-04-28T14:05:31.585Z,28.95
2023-04-28T14:07:37.883Z,29.05
2023-04-28T14:09:39.689Z,28.48
2023-04-28T14:11:41.239Z,28.48
2023-04-28T14:13:44.072Z,28.25
2023-04-28T14:15:57.919Z,28.65
2023-04-28T14:18:01.065Z,28.51
2023-04-28T14:20:03.407Z,28.94
2023-04-28T14:22:05.014Z,28.67
2023-04-28T14:24:06.653Z,28.85
2023-04-28T14:26:08.316Z,28.98
2023-04-28T14:28:09.999Z,29.40
2023-04-28T14:30:14.202Z,29.83
2023-04-28T14:32:16.445Z,30.45
2023-04-28T14:34:17.999Z,30.43
2023-04-28T14:36:19.964Z,31.26
2023-04-28T14:38:21.610Z,30.80
2023-04-28T14:40:24.518Z,30.27
2023-04-28T14:42:28.975Z,31.46
2023-04-28T14:44:30.567Z,31.30
2023-04-28T14:46:33.905Z,31.55
2023-04-28T14:48:36.889Z,30.89
2023-04-28T14:50:38.549Z,31.12
2023-04-28T14:52:40.723Z,32.15
2023-04-28T14:54:42.411Z,32.36
2023-04-28T14:56:44.046Z,32.45
2023-04-28T14:58:45.681Z,32.17
2023-04-28T15:00:47.327Z,31.79
2023-04-28T15:02:50.447Z,32.58
2023-04-28T15:04:52.480Z,31.61
2023-04-28T15:06:54.602Z,32.37
2023-04-28T15:08:56.229Z,31.60
2023-04-28T15:10:57.962Z,32.10
2023-04-28T15:12:59.553Z,31.82
2023-04-28T15:15:01.181Z,32.06
2023-04-28T15:17:02.741Z,32.56
2023-04-28T15:19:05.671Z,32.67
2023-04-28T15:21:07.233Z,33.00
2023-04-28T15:23:08.733Z,33.16
2023-04-28T15:25:10.431Z,33.60
2023-04-28T15:27:12.014Z,33.80
2023-04-28T15:29:13.721Z,33.60
2023-04-28T15:31:15.478Z,33.43
2023-04-28T15:33:17.128Z,33.72
2023-04-28T15:35:20.222Z,33.83
2023-04-28T15:37:39.891Z,33.88
2023-04-28T15:39:41.548Z,34.41
2023-04-28T15:41:43.115Z,33.96
2023-04-28T15:43:44.847Z,35.04
2023-04-28T15:45:46.568Z,35.10
2023-04-28T15:47:48.884Z,34.36
2023-04-28T15:49:50.612Z,34.44
2023-04-28T15:51:53.618Z,34.45
2023-04-28T15:53:55.562Z,35.48
2023-04-28T15:55:57.624Z,34.97
2023-04-28T15:58:01.553Z,35.48
2023-04-28T16:00:03.449Z,35.02
2023-04-28T16:02:05.101Z,35.12
2023-04-28T16:04:06.889Z,35.19
2023-04-28T16:06:08.874Z,35.27
2023-04-28T16:08:11.829Z,36.05
2023-04-28T16:10:15.342Z,35.41
2023-04-28T16:12:16.943Z,35.92
2023-04-28T16:14:18.530Z,36.47
2023-04-28T16:16:20.449Z,35.75
2023-04-28T16:18:22.133Z,36.05
2023-04-28T16:20:23.958Z,36.99
2023-04-28T16:22:25.989Z,37.47
2023-04-28T16:24:28.952Z,36.93
2023-04-28T16:26:30.579Z,37.61
2023-04-28T16:28:32.602Z,38.00
2023-04-28T16:30:34.133Z,38.35
2023-04-28T16:32:35.906Z,38.21
2023-04-28T16:34:37.459Z,38.38
2023-04-28T16:36:39.092Z,38.46
2023-04-28T16:38:41.154Z,38.84
2023-04-28T16:40:44.080Z,38.04
2023-04-28T16:42:45.669Z,38.52
2023-04-28T16:44:47.216Z,38.69
2023-04-28T16:46:48.779Z,38.50
2023-04-28T16:48:50.324Z,38.88
2023-04-28T16:50:52.453Z,39.67
2023-04-28T16:52:54.051Z,39.41
2023-04-28T16:54:55.635Z,39.35
2023-04-28T16:57:00.022Z,39.43
2023-04-28T16:59:01.548Z,39.66
2023-04-28T17:01:03.223Z,39.70
2023-04-28T17:03:04.968Z,39.20
2023-04-28T17:05:07.324Z,39.95
2023-04-28T17:07:08.869Z,39.46
2023-04-28T17:09:10.714Z,39.71
2023-04-28T17:11:16.061Z,39.88
2023-04-28T17:13:19.017Z,39.78
2023-04-28T17:15:20.787Z,40.30
2023-04-28T17:17:22.424Z,40.49
2023-04-28T17:19:24.074Z,40.80
2023-04-28T17:21:25.771Z,40.48
2023-04-28T17:23:30.638Z,40.86
2023-04-28T17:25:32.189Z,40.88
2023-04-28T17:27:33.780Z,40.59
2023-04-28T17:29:39.829Z,40.30
2023-04-28T17:31:41.458Z,40.97
2023-04-28T17:33:43.097Z,41.44
2023-04-28T17:35:44.667Z,41.79
2023-04-28T17:37:46.301Z,42.14
2023-04-28T17:39:49.694Z,41.94
2023-04-28T17:41:51.686Z,42.48
2023-04-28T17:43:53.208Z,41.99
2023-04-28T17:45:56.589Z,42.30
2023-04-28T17:47:58.360Z,42.28
2023-04-28T17:49:59.925Z,42.22
2023-04-28T17:52:01.513Z,42.26
2023-04-28T17:54:03.104Z,42.39
2023-04-28T17:56:05.290Z,42.81
2023-04-28T17:58:10.613Z,42.97
2023-04-28T18:00:13.630Z,43.64
2023-04-28T18:02:16.803Z,43.20
2023-04-28T18:04:18.449Z,43.01
2023-04-28T18:06:20.127Z,42.96
2023-04-28T18:08:21.734Z,43.01
2023-04-28T18:10:23.207Z,43.10
2023-04-28T18:12:24.820Z,43.39
2023-04-28T18:14:26.384Z,43.28
2023-04-28T18:16:27.935Z,43.23
2023-04-28T18:18:32.622Z,43.13
2023-04-28T18:20:35.744Z,43.74
2023-04-28T18:22:37.312Z,43.81
2023-04-28T18:24:38.932Z,44.06
2023-04-28T18:26:40.590Z,44.61
2023-04-28T18:28:45.490Z,44.53
2023-04-28T18:30:47.078Z,44.55
2023-04-28T18:32:48.984Z,44.91
2023-04-28T18:34:52.281Z,44.63
2023-04-28T18:36:53.940Z,45.19
2023-04-28T18:38:55.492Z,44.53
2023-04-28T18:40:57.444Z,45.16
2023-04-28T18:43:01.909Z,44.72
2023-04-28T18:45:04.028Z,44.92
2023-04-28T18:47:05.698Z,45.64
2023-04-28T18:49:07.531Z,45.69
2023-04-28T18:51:10.437Z,46.20
2023-04-28T18:53:12.015Z,45.91
2023-04-28T18:55:13.523Z,45.65
2023-04-28T18:57:16.581Z,46.24
2023-04-28T18:59:18.157Z,46.43
2023-04-28T19:01:19.812Z,46.29
2023-04-28T19:03:21.732Z,46.47
2023-04-28T19:05:23.643Z,46.51
2023-04-28T19:07:26.618Z,46.53
2023-04-28T19:09:28.151Z,47.11
2023-04-28T19:11:29.756Z,46.63
2023-04-28T19:13:31.416Z,47.22
2023-04-28T19:15:32.993Z,47.72
2023-04-28T19:17:34.713Z,47.31
2023-04-28T19:19:36.299Z,47.27
2023-04-28T19:21:43.008Z,46.99
2023-04-28T19:23:45.951Z,46.95
2023-04-28T19:25:47.945Z,47.25
2023-04-28T19:27:49.601Z,47.58
2023-04-28T19:29:51.419Z,47.57
2023-04-28T19:31:53.272Z,47.71
2023-04-28T19:33:54.925Z,46.96
2023-04-28T19:35:56.692Z,46.78
2023-04-28T19:37:58.275Z,47.49
2023-04-28T19:40:02.197Z,48.01
2023-04-28T19:42:04.736Z,47.97
2023-04-28T19:44:06.460Z,48.07
2023-04-28T19:46:08.049Z,48.48
2023-04-28T19:48:09.936Z,48.03
2023-04-28T19:50:11.627Z,47.85
2023-04-28T19:52:13.198Z,48.35
2023-04-28T19:54:15.709Z,48.29
2023-04-28T19:56:19.661Z,48.33
2023-04-28T19:58:21.411Z,48.21
2023-04-28T20:00:23.563Z,47.70
2023-04-28T20:02:25.343Z,48.54
2023-04-28T20:04:27.395Z,48.47
2023-04-28T20:06:29.234Z,48.46
2023-04-28T20:08:30.796Z,48.42
2023-04-28T20:10:32.354Z,48.83
2023-04-28T20:12:35.388Z,48.75
2023-04-28T20:14:36.986Z,48.86
2023-04-28T20:16:38.551Z,48.33
2023-04-28T20:18:40.591Z,49.36
2023-04-28T20:20:42.145Z,49.40
2023-04-28T20:22:45.840Z,49.44
2023-04-28T20:24:47.381Z,49.19
2023-04-28T20:26:49.318Z,49.74
2023-04-28T20:28:52.203Z,49.81
2023-04-28T20:30:53.786Z,50.17
2023-04-28T20:32:55.498Z,49.53
2023-04-28T20:34:57.111Z,50.16
2023-04-28T20:36:59.693Z,50.21
2023-04-28T20:39:01.497Z,50.06
2023-04-28T20:41:03.059Z,49.97
2023-04-28T20:43:04.583Z,50.15
2023-04-28T20:45:08.958Z,50.34
2023-04-28T20:47:10.585Z,50.21
2023-04-28T20:49:12.129Z,51.94
2023-04-28T20:51:13.731Z,51.85
2023-04-28T20:53:15.334Z,51.71
2023-04-28T20:55:16.963Z,51.33
2023-04-28T20:57:18.532Z,51.44
2023-04-28T20:59:20.201Z,51.06
2023-04-28T21:01:23.283Z,52.64
2023-04-28T21:03:25.388Z,52.77
2023-04-28T21:05:26.958Z,52.27
2023-04-28T21:07:28.625Z,52.91
2023-04-28T21:09:30.168Z,53.77
2023-04-28T21:11:31.762Z,52.72
2023-04-28T21:13:33.360Z,54.17
2023-04-28T21:15:36.916Z,53.27
2023-04-28T21:17:39.859Z,53.78
2023-04-28T21:19:41.425Z,54.19
2023-04-28T21:21:43.035Z,54.80
2023-04-28T21:23:44.591Z,54.46
2023-04-28T21:25:46.194Z,55.14
2023-04-28T21:27:47.830Z,55.21
2023-04-28T21:29:49.669Z,55.07
2023-04-28T21:31:51.422Z,55.01
2023-04-28T21:33:54.318Z,54.82
2023-04-28T21:35:57.073Z,55.91
2023-04-28T21:37:58.801Z,56.15
2023-04-28T21:40:00.348Z,56.62
2023-04-28T21:42:02.091Z,56.80
2023-04-28T21:44:04.011Z,56.80
2023-04-28T21:46:05.560Z,56.55
2023-04-28T21:48:07.401Z,56.96
2023-04-28T21:50:10.657Z,55.60
2023-04-28T21:52:12.318Z,57.16
2023-04-28T21:54:13.965Z,56.63
2023-04-28T21:56:15.698Z,56.67
2023-04-28T21:58:17.287Z,55.91
2023-04-28T22:00:18.913Z,56.76
2023-04-28T22:02:20.857Z,56.93
2023-04-28T22:04:22.716Z,57.87
2023-04-28T22:06:26.695Z,57.18
2023-04-28T22:08:28.464Z,58.35
2023-04-28T22:10:31.886Z,57.42
2023-04-28T22:12:34.876Z,57.56
2023-04-28T22:14:40.979Z,58.31
2023-04-28T22:16:43.027Z,57.72
2023-04-28T22:18:44.549Z,57.71
2023-04-28T22:20:46.174Z,58.18
2023-04-28T22:22:49.183Z,58.07
2023-04-28T22:24:50.700Z,58.39
2023-04-28T22:26:52.244Z,58.67
2023-04-28T22:28:53.902Z,58.73
2023-04-28T22:30:55.673Z,58.91
2023-04-28T22:32:57.412Z,59.25
2023-04-28T22:34:58.959Z,59.06
2023-04-28T22:37:00.516Z,58.58
2023-04-28T22:39:03.632Z,59.26
2023-04-28T22:41:05.381Z,59.44
2023-04-28T22:43:07.088Z,59.36
2023-04-28T22:45:18.674Z,59.56
2023-04-28T22:47:20.244Z,59.77
2023-04-28T22:49:22.087Z,59.67
2023-04-28T22:51:23.738Z,59.44
2023-04-28T22:53:25.333Z,59.62
2023-04-28T22:55:28.285Z,60.12
2023-04-28T22:57:30.165Z,59.49
2023-04-28T22:59:32.853Z,60.62
2023-04-28T23:01:34.442Z,60.73
2023-04-28T23:03:36.557Z,60.81
2023-04-28T23:05:38.810Z,61.32
2023-04-28T23:07:40.701Z,61.47
2023-04-28T23:09:42.221Z,61.67
2023-04-28T23:11:45.165Z,61.38
2023-04-28T23:13:46.665Z,61.70
2023-04-28T23:15:48.363Z,62.10
2023-04-28T23:17:50.002Z,61.88
2023-04-28T23:19:52.031Z,62.19
2023-04-28T23:21:53.846Z,61.98
2023-04-28T23:23:55.518Z,63.13
2023-04-28T23:25:57.068Z,62.71
2023-04-28T23:28:00.676Z,62.27
2023-04-28T23:30:02.410Z,62.39
2023-04-28T23:32:04.457Z,62.83
2023-04-28T23:34:06.845Z,62.83
2023-04-28T23:36:08.799Z,62.60
2023-04-28T23:38:10.413Z,63.01
2023-04-28T23:40:13.380Z,63.29
2023-04-28T23:42:15.504Z,62.42
2023-04-28T23:44:18.661Z,62.76
2023-04-28T23:46:20.712Z,63.34
2023-04-28T23:48:22.795Z,63.78
2023-04-28T23:50:24.735Z,63.52
2023-04-28T23:52:26.491Z,62.65
2023-04-28T23:54:28.055Z,63.23
2023-04-28T23:56:29.675Z,62.96
2023-04-28T23:58:31.306Z,63.08
